createdAt,value
2023-07-07T00:01:09.431Z,13.61
2023-07-07T00:04:31.463Z,13.48
2023-07-07T00:07:53.607Z,13.47
2023-07-07T00:11:15.288Z,13.42
2023-07-07T00:14:37.150Z,13.32
2023-07-07T00:18:00.409Z,13.28
2023-07-07T00:21:25.407Z,13.21
2023-07-07T00:24:47.010Z,13.15
2023-07-07T00:28:09.176Z,13.09
2023-07-07T00:31:31.848Z,13.05
2023-07-07T00:34:56.403Z,12.99
2023-07-07T00:38:19.106Z,12.88
2023-07-07T00:41:42.074Z,12.80
2023-07-07T00:45:19.536Z,12.80
2023-07-07T00:48:45.792Z,12.71
2023-07-07T00:52:09.879Z,12.65
2023-07-07T00:55:38.091Z,12.58
2023-07-07T00:59:04.288Z,12.55
2023-07-07T01:02:28.691Z,12.50
2023-07-07T01:05:52.807Z,12.45
2023-07-07T01:09:15.904Z,12.42
2023-07-07T01:12:37.687Z,12.37
2023-07-07T01:16:05.953Z,12.28
2023-07-07T01:19:58.047Z,12.22
2023-07-07T01:23:47.847Z,12.10
2023-07-07T01:27:47.597Z,12.06
2023-07-07T01:31:15.917Z,12.00
2023-07-07T01:34:38.159Z,11.93
2023-07-07T01:38:02.528Z,11.83
2023-07-07T01:41:32.815Z,11.77
2023-07-07T01:45:02.223Z,11.74
2023-07-07T01:48:32.963Z,11.72
2023-07-07T01:52:01.735Z,11.67
2023-07-07T01:55:27.624Z,11.65
2023-07-07T01:58:50.831Z,11.59
2023-07-07T02:02:12.996Z,11.55
2023-07-07T02:05:36.696Z,11.56
2023-07-07T02:08:58.494Z,11.54
2023-07-07T02:12:20.153Z,11.57
2023-07-07T02:15:42.551Z,11.57
2023-07-07T02:19:04.211Z,11.50
2023-07-07T02:22:27.292Z,11.59
2023-07-07T02:25:49.224Z,11.58
2023-07-07T02:29:10.968Z,11.59
2023-07-07T02:32:32.636Z,11.60
2023-07-07T02:35:54.417Z,11.62
2023-07-07T02:39:17.700Z,11.60
2023-07-07T02:42:40.239Z,11.62
2023-07-07T02:46:02.252Z,11.61
2023-07-07T02:49:24.109Z,11.65
2023-07-07T02:52:45.850Z,11.74
2023-07-07T02:56:09.242Z,11.83
2023-07-07T02:59:31.425Z,11.89
2023-07-07T03:02:53.609Z,11.90
2023-07-07T03:06:18.070Z,12.00
2023-07-07T03:09:39.792Z,12.13
2023-07-07T03:13:03.159Z,12.26
2023-07-07T03:16:31.952Z,12.36
2023-07-07T03:19:54.045Z,12.62
2023-07-07T03:23:16.351Z,12.85
2023-07-07T03:26:38.496Z,13.12
2023-07-07T03:30:01.795Z,13.40
2023-07-07T03:33:23.900Z,13.71
2023-07-07T03:36:45.773Z,14.14
2023-07-07T03:40:10.858Z,14.47
2023-07-07T03:43:35.042Z,14.69
2023-07-07T03:46:58.452Z,14.94
2023-07-07T03:50:20.405Z,15.20
2023-07-07T03:53:43.490Z,15.46
2023-07-07T03:57:05.936Z,15.67
2023-07-07T04:00:28.013Z,15.74
2023-07-07T04:03:51.375Z,15.95
2023-07-07T04:07:13.505Z,16.18
2023-07-07T04:10:35.515Z,16.31
2023-07-07T04:13:57.265Z,16.54
2023-07-07T04:17:19.201Z,16.69
2023-07-07T04:20:42.201Z,16.90
2023-07-07T04:24:04.995Z,17.13
2023-07-07T04:27:26.927Z,17.26
2023-07-07T04:30:52.869Z,17.35
2023-07-07T04:34:15.106Z,17.50
2023-07-07T04:37:38.509Z,17.62
2023-07-07T04:41:09.065Z,17.77
2023-07-07T04:44:30.826Z,17.89
2023-07-07T04:47:52.630Z,17.93
2023-07-07T04:51:14.997Z,18.13
2023-07-07T04:54:38.117Z,18.15
2023-07-07T04:58:00.257Z,18.22
2023-07-07T05:01:24.047Z,18.38
2023-07-07T05:04:46.140Z,18.50
2023-07-07T05:08:09.721Z,18.57
2023-07-07T05:11:35.227Z,18.51
2023-07-07T05:14:57.226Z,18.63
2023-07-07T05:18:19.186Z,18.80
2023-07-07T05:21:41.147Z,18.82
2023-07-07T05:25:03.550Z,18.61
2023-07-07T05:28:27.338Z,18.46
2023-07-07T05:31:49.322Z,18.25
2023-07-07T05:35:11.180Z,18.09
2023-07-07T05:38:33.146Z,18.24
2023-07-07T05:41:54.872Z,18.53
2023-07-07T05:45:18.250Z,18.72
2023-07-07T05:48:40.562Z,18.99
2023-07-07T05:52:02.592Z,19.37
2023-07-07T05:55:29.600Z,19.53
2023-07-07T05:58:53.093Z,19.78
2023-07-07T06:02:16.389Z,19.94
2023-07-07T06:05:38.596Z,20.00
2023-07-07T06:09:00.122Z,20.05
2023-07-07T06:12:21.825Z,20.21
2023-07-07T06:15:43.704Z,20.29
2023-07-07T06:19:08.140Z,20.24
2023-07-07T06:22:30.174Z,20.19
2023-07-07T06:25:52.193Z,20.15
2023-07-07T06:29:14.107Z,20.34
2023-07-07T06:32:36.179Z,20.33
2023-07-07T06:35:59.209Z,20.35
2023-07-07T06:39:21.361Z,20.11
2023-07-07T06:42:43.094Z,20.00
2023-07-07T06:46:05.190Z,20.07
2023-07-07T06:49:27.042Z,20.12
2023-07-07T06:52:50.330Z,20.20
2023-07-07T06:56:12.530Z,19.95
2023-07-07T06:59:35.430Z,19.94
2023-07-07T07:02:57.486Z,20.13
2023-07-07T07:06:19.393Z,20.42
2023-07-07T07:09:42.577Z,20.75
2023-07-07T07:13:04.561Z,20.73
2023-07-07T07:16:26.389Z,20.88
2023-07-07T07:19:48.105Z,21.01
2023-07-07T07:23:09.680Z,20.88
2023-07-07T07:26:32.681Z,20.79
2023-07-07T07:29:54.678Z,20.90
2023-07-07T07:33:21.095Z,21.00
2023-07-07T07:36:42.935Z,21.20
2023-07-07T07:40:05.484Z,21.52
2023-07-07T07:43:28.841Z,21.61
2023-07-07T07:46:53.236Z,21.76
2023-07-07T07:50:16.230Z,21.76
2023-07-07T07:53:38.189Z,21.79
2023-07-07T07:57:00.166Z,21.79
2023-07-07T08:00:23.484Z,21.45
2023-07-07T08:03:45.120Z,21.31
2023-07-07T08:07:07.881Z,21.44
2023-07-07T08:10:29.918Z,21.67
2023-07-07T08:13:52.007Z,21.81
2023-07-07T08:17:16.193Z,21.82
2023-07-07T08:20:38.496Z,21.82
2023-07-07T08:24:00.491Z,21.94
2023-07-07T08:30:49.732Z,22.03
2023-07-07T08:34:12.914Z,21.61
2023-07-07T08:37:35.809Z,21.47
2023-07-07T08:40:59.138Z,21.24
2023-07-07T08:44:24.757Z,21.41
2023-07-07T08:48:01.008Z,21.92
2023-07-07T08:51:29.799Z,21.92
2023-07-07T08:55:02.105Z,21.57
2023-07-07T08:58:32.328Z,21.47
2023-07-07T09:01:58.518Z,21.63
2023-07-07T09:05:34.075Z,21.43
2023-07-07T09:09:02.951Z,21.20
2023-07-07T09:12:34.230Z,21.01
2023-07-07T09:16:06.919Z,21.04
2023-07-07T09:19:33.875Z,21.01
2023-07-07T09:23:00.960Z,21.17
2023-07-07T09:26:33.634Z,21.56
2023-07-07T09:30:04.869Z,21.45
2023-07-07T09:33:27.534Z,21.48
2023-07-07T09:36:57.357Z,21.60
2023-07-07T09:40:24.037Z,21.89
2023-07-07T09:43:56.806Z,21.69
2023-07-07T09:47:27.105Z,21.49
2023-07-07T09:50:56.362Z,21.44
2023-07-07T09:54:21.866Z,21.23
2023-07-07T09:57:49.980Z,21.11
2023-07-07T10:01:13.208Z,21.05
2023-07-07T10:04:35.425Z,20.72
2023-07-07T10:07:58.534Z,20.67
2023-07-07T10:11:58.032Z,20.68
2023-07-07T10:15:14.595Z,20.59
2023-07-07T10:18:49.342Z,20.84
2023-07-07T10:22:17.491Z,21.19
2023-07-07T10:25:39.746Z,21.14
2023-07-07T10:29:04.671Z,21.23
2023-07-07T10:32:26.853Z,21.33
2023-07-07T10:35:50.160Z,21.59
2023-07-07T10:39:11.831Z,21.71
2023-07-07T10:42:34.676Z,21.83
2023-07-07T10:45:56.329Z,21.65
2023-07-07T10:49:26.034Z,21.63
2023-07-07T10:56:48.984Z,21.83
2023-07-07T11:00:31.674Z,21.64
2023-07-07T11:04:33.318Z,21.82
2023-07-07T11:08:02.531Z,21.96
2023-07-07T11:11:34.570Z,22.20
2023-07-07T11:15:05.114Z,22.32
2023-07-07T11:18:44.322Z,22.24
2023-07-07T11:22:19.909Z,22.35
2023-07-07T11:25:51.673Z,22.06
2023-07-07T11:29:21.577Z,21.88
2023-07-07T11:32:52.808Z,22.00
2023-07-07T11:36:38.622Z,21.87
2023-07-07T11:40:17.233Z,21.80
2023-07-07T11:44:02.544Z,22.05
2023-07-07T11:47:43.265Z,21.96
2023-07-07T11:51:25.323Z,21.70
2023-07-07T11:55:17.037Z,21.38
2023-07-07T11:58:48.934Z,21.21
2023-07-07T12:02:17.679Z,21.17
2023-07-07T12:05:42.766Z,21.30
2023-07-07T12:09:14.663Z,21.26
2023-07-07T12:12:41.053Z,21.22
2023-07-07T12:16:15.465Z,21.46
2023-07-07T12:19:42.534Z,21.45
2023-07-07T12:23:07.422Z,21.42
2023-07-07T12:26:34.894Z,21.52
2023-07-07T12:29:59.933Z,21.63
2023-07-07T12:33:22.928Z,21.82
2023-07-07T12:36:44.819Z,21.83
2023-07-07T12:40:18.115Z,21.82
2023-07-07T12:43:44.689Z,21.67
2023-07-07T12:47:20.698Z,21.43
2023-07-07T12:50:45.140Z,21.30
2023-07-07T12:54:06.904Z,21.34
2023-07-07T12:57:30.228Z,21.47
2023-07-07T13:01:07.626Z,21.41
2023-07-07T13:04:41.765Z,21.38
2023-07-07T13:08:04.215Z,21.48
2023-07-07T13:11:36.392Z,21.56
2023-07-07T13:15:07.897Z,21.63
2023-07-07T13:18:29.555Z,21.57
2023-07-07T13:21:53.531Z,21.47
2023-07-07T13:25:22.029Z,21.49
2023-07-07T13:28:44.018Z,21.40
2023-07-07T13:32:08.034Z,21.47
2023-07-07T13:35:30.129Z,21.37
2023-07-07T13:38:54.542Z,21.34
2023-07-07T13:42:26.825Z,21.17
2023-07-07T13:45:48.673Z,21.16
2023-07-07T13:49:16.112Z,21.13
2023-07-07T13:52:41.883Z,21.17
2023-07-07T13:56:04.354Z,21.15
2023-07-07T13:59:28.483Z,21.16
2023-07-07T14:02:51.677Z,21.08
2023-07-07T14:06:16.354Z,21.05
2023-07-07T14:09:41.213Z,21.13
2023-07-07T14:13:05.873Z,21.21
2023-07-07T14:16:34.292Z,21.03
2023-07-07T14:20:00.173Z,21.04
2023-07-07T14:23:23.872Z,21.00
2023-07-07T14:26:46.481Z,21.02
2023-07-07T14:30:16.880Z,21.08
2023-07-07T14:33:43.064Z,21.03
2023-07-07T14:37:06.654Z,21.08
2023-07-07T14:40:32.825Z,21.07
2023-07-07T14:43:54.535Z,20.94
2023-07-07T14:47:20.833Z,20.96
2023-07-07T14:50:42.863Z,20.99
2023-07-07T14:54:05.743Z,20.96
2023-07-07T14:57:29.886Z,20.89
2023-07-07T15:00:53.563Z,20.97
2023-07-07T15:04:17.325Z,20.84
2023-07-07T15:07:38.888Z,20.87
2023-07-07T15:11:03.681Z,20.88
2023-07-07T15:14:27.099Z,20.71
2023-07-07T15:17:48.975Z,20.73
2023-07-07T15:21:20.199Z,20.77
2023-07-07T15:24:42.022Z,20.72
2023-07-07T15:28:03.619Z,20.75
2023-07-07T15:31:27.558Z,20.78
2023-07-07T15:34:49.261Z,20.74
2023-07-07T15:39:06.186Z,20.61
2023-07-07T15:42:28.268Z,20.68
2023-07-07T15:45:54.631Z,20.76
2023-07-07T15:49:19.784Z,21.01
2023-07-07T15:52:41.666Z,21.08
2023-07-07T15:56:03.414Z,21.65
2023-07-07T15:59:26.475Z,22.30
2023-07-07T16:02:48.540Z,22.55
2023-07-07T16:06:13.195Z,22.51
2023-07-07T16:09:36.274Z,22.66
2023-07-07T16:12:58.006Z,22.90
2023-07-07T16:16:22.750Z,23.14
2023-07-07T16:19:45.498Z,23.41
2023-07-07T16:23:08.605Z,23.47
2023-07-07T16:26:32.935Z,23.63
2023-07-07T16:29:54.647Z,23.72
2023-07-07T16:33:16.642Z,23.56
2023-07-07T16:36:39.499Z,23.44
2023-07-07T16:40:04.699Z,23.83
2023-07-07T16:43:29.578Z,24.10
2023-07-07T16:46:51.715Z,23.95
2023-07-07T16:50:22.819Z,24.25
2023-07-07T16:53:44.561Z,24.35
2023-07-07T16:57:10.388Z,24.12
2023-07-07T17:00:38.906Z,24.48
2023-07-07T17:04:00.948Z,24.31
2023-07-07T17:07:22.768Z,24.31
2023-07-07T17:10:45.088Z,24.12
2023-07-07T17:14:08.470Z,23.76
2023-07-07T17:17:30.568Z,23.45
2023-07-07T17:20:52.402Z,23.32
2023-07-07T17:24:14.081Z,23.17
2023-07-07T17:27:35.861Z,23.17
2023-07-07T17:30:59.503Z,23.06
2023-07-07T17:34:21.687Z,22.92
2023-07-07T17:37:43.634Z,22.83
2023-07-07T17:41:10.898Z,22.73
2023-07-07T17:44:32.549Z,22.96
2023-07-07T17:47:56.045Z,23.00
2023-07-07T17:51:17.755Z,23.12
2023-07-07T17:54:39.641Z,22.91
2023-07-07T17:58:01.554Z,22.76
2023-07-07T18:01:23.777Z,22.77
2023-07-07T18:04:46.901Z,22.79
2023-07-07T18:08:12.885Z,22.73
2023-07-07T18:11:34.470Z,22.45
2023-07-07T18:14:56.349Z,22.14
2023-07-07T18:18:31.724Z,22.23
2023-07-07T18:22:03.517Z,22.20
2023-07-07T18:25:25.580Z,22.06
2023-07-07T18:28:47.386Z,21.79
2023-07-07T18:32:12.145Z,21.26
2023-07-07T18:39:01.241Z,20.18
2023-07-07T18:42:25.736Z,19.73
2023-07-07T18:45:47.465Z,19.40
2023-07-07T18:49:10.928Z,19.11
2023-07-07T18:52:32.941Z,18.87
2023-07-07T18:55:56.220Z,18.60
2023-07-07T18:59:20.850Z,18.39
2023-07-07T19:02:42.916Z,18.14
2023-07-07T19:06:04.865Z,17.94
2023-07-07T19:09:26.976Z,17.72
2023-07-07T19:12:49.978Z,17.50
2023-07-07T19:16:18.472Z,17.34
2023-07-07T19:19:40.297Z,17.17
2023-07-07T19:23:02.540Z,16.95
2023-07-07T19:26:27.737Z,16.87
2023-07-07T19:29:50.949Z,16.74
2023-07-07T19:33:18.055Z,16.66
2023-07-07T19:36:44.777Z,16.56
2023-07-07T19:40:18.474Z,16.45
2023-07-07T19:43:40.484Z,16.37
2023-07-07T19:47:03.912Z,16.28
2023-07-07T19:50:29.037Z,16.16
2023-07-07T19:53:52.433Z,16.09
2023-07-07T19:57:22.638Z,16.07
2023-07-07T20:00:44.236Z,16.01
2023-07-07T20:04:07.560Z,15.96
2023-07-07T20:07:29.402Z,15.90
2023-07-07T20:10:51.649Z,15.92
2023-07-07T20:14:13.755Z,15.89
2023-07-07T20:17:36.219Z,15.81
2023-07-07T20:20:59.439Z,15.76
2023-07-07T20:24:22.804Z,15.75
2023-07-07T20:27:47.239Z,15.74
2023-07-07T20:31:13.314Z,15.55
2023-07-07T20:34:35.165Z,15.66
2023-07-07T20:37:58.615Z,15.65
2023-07-07T20:41:21.069Z,15.61
2023-07-07T20:44:43.254Z,15.53
2023-07-07T20:48:05.805Z,15.48
2023-07-07T20:51:29.728Z,15.47
2023-07-07T20:54:52.906Z,15.44
2023-07-07T20:58:15.108Z,15.42
2023-07-07T21:01:36.940Z,15.37
2023-07-07T21:04:58.510Z,15.34
2023-07-07T21:08:20.397Z,15.34
2023-07-07T21:11:43.666Z,15.33
2023-07-07T21:15:06.312Z,15.29
2023-07-07T21:18:27.985Z,15.22
2023-07-07T21:21:49.769Z,15.21
2023-07-07T21:25:11.766Z,15.18
2023-07-07T21:28:34.972Z,15.16
2023-07-07T21:31:57.079Z,15.15
2023-07-07T21:35:19.310Z,15.12
2023-07-07T21:38:41.063Z,15.11
2023-07-07T21:45:29.553Z,15.05
2023-07-07T21:48:51.625Z,15.01
2023-07-07T21:52:15.928Z,15.02
2023-07-07T21:55:38.816Z,15.00
2023-07-07T21:59:11.686Z,14.99
2023-07-07T22:02:34.993Z,14.98
2023-07-07T22:05:56.933Z,14.96
2023-07-07T22:09:19.957Z,14.95
2023-07-07T22:12:41.902Z,14.94
2023-07-07T22:16:03.555Z,14.95
2023-07-07T22:19:26.659Z,14.95
2023-07-07T22:22:48.569Z,14.95
2023-07-07T22:26:15.718Z,14.96
2023-07-07T22:29:37.362Z,14.96
2023-07-07T22:32:59.284Z,14.91
2023-07-07T22:36:24.182Z,14.92
2023-07-07T22:39:46.087Z,14.89
2023-07-07T22:43:07.685Z,14.86
2023-07-07T22:46:32.452Z,14.86
2023-07-07T22:49:54.035Z,14.82
2023-07-07T22:53:17.437Z,14.79
2023-07-07T22:56:39.542Z,14.78
2023-07-07T23:00:01.636Z,14.75
2023-07-07T23:03:24.222Z,14.76
2023-07-07T23:06:46.969Z,14.75
2023-07-07T23:10:16.497Z,14.76
2023-07-07T23:13:38.118Z,14.73
2023-07-07T23:17:00.090Z,14.70
2023-07-07T23:20:24.551Z,14.72
2023-07-07T23:23:46.714Z,14.70
2023-07-07T23:27:12.505Z,14.72
2023-07-07T23:30:39.672Z,14.69
2023-07-07T23:34:01.546Z,14.67
2023-07-07T23:37:26.680Z,14.61
2023-07-07T23:40:48.684Z,14.62
2023-07-07T23:44:12.046Z,14.64
2023-07-07T23:47:33.906Z,14.63
2023-07-07T23:50:59.785Z,14.63
2023-07-07T23:54:22.012Z,14.59
2023-07-07T23:57:43.875Z,14.59
